Airfield :
LOGIN :

Register | Disclaimer

   EN    FR    IT 

 










Legend :    VFR   Marginal VFR   IFR   Intensive IFR   Very Intensive IFR
Visi :
Ceiling :
>= 8 km
>= 3000ft
5 to 8 km
1000 to 3000 ft
1500m to 5 km
500 to 1000 ft
800 to 1500m
200 to 500 ft
< 800m
< 200 ft
Symbols :   Thunderstorms  Fog  Heavy snow  Heavy precipitations  Wind > 20 kt
SIGMETs :     Misc.  Thunderstorms  Icing  Turbulence  Mountain Waves  Volcanic Ashes







- Airport Elevation : 278 ft
- IATA code : RJK


LDRI - Rijeka

CURRENT METAR :
  • 161130Z 16007KT 130V200 9999 FEW035 11/03 Q1020

EXPIRED METARs :
  • 161100Z 19005KT 130V240 9999 FEW035 11/03 Q1020
  • 161030Z 16007KT 130V200 9999 FEW035 11/03 Q1020
  • 161000Z 16007KT 110V220 9999 FEW035 11/03 Q1020
  • 160930Z 16007KT 130V200 9999 FEW035 11/03 Q1020
  • 160900Z 14005KT 100V190 9999 FEW035 09/04 Q1020

TAF TAF LDRI
Valid from the 16 at 12:00 until the 17 at 12:00 UTC


161125Z 1612/1712 20005KT 9999 SCT035 TX12/1613Z TN06/1622Z
PROB30
TEMPO 1613/1616 FEW030TCU
BECMG 1700/1702 26010KT
PROB30
TEMPO 1710/1712 4000 -SHRA FEW025TCU BKN030
No reported NOTAMs for that airfield.



MET'MAP, your aeronautical weather chart ! - Copyright ORBIFLY December 2007 - Disclaimer

ORBIFLY MET'MAP TEAM :

Programming & Development : Alexandra Zaïnal
Concept & Development : Baudouin d'Aumeries
Co-Development & Prog : Marc-Olivier Méhu
Technical & hardware support : Manuel Goepfert

Contact : metmap@orbifly.com




SOURCES & CREDITS :

   NOAA